createdAt,value
2022-08-26T00:01:45.338Z,5.50
2022-08-26T00:06:48.509Z,5.30
2022-08-26T00:11:52.239Z,5.00
2022-08-26T00:16:55.175Z,4.80
2022-08-26T00:21:58.201Z,5.10
2022-08-26T00:27:00.957Z,4.50
2022-08-26T00:32:04.177Z,4.40
2022-08-26T00:37:08.725Z,5.10
2022-08-26T00:42:13.100Z,5.20
2022-08-26T00:47:34.113Z,4.90
2022-08-26T00:52:37.748Z,4.70
2022-08-26T00:57:42.582Z,5.20
2022-08-26T01:02:47.686Z,5.40
2022-08-26T01:07:50.772Z,4.10
2022-08-26T01:12:58.219Z,4.90
2022-08-26T01:18:04.070Z,5.50
2022-08-26T01:28:21.825Z,4.50
2022-08-26T01:33:31.799Z,4.50
2022-08-26T01:38:45.244Z,4.70
2022-08-26T01:43:53.339Z,4.50
2022-08-26T01:49:00.263Z,4.30
2022-08-26T01:54:06.001Z,3.80
2022-08-26T01:59:12.539Z,3.70
2022-08-26T02:04:39.981Z,3.50
2022-08-26T02:09:51.152Z,4.00
2022-08-26T02:14:58.119Z,3.90
2022-08-26T02:20:02.434Z,4.10
2022-08-26T02:25:12.111Z,3.60
2022-08-26T02:30:25.442Z,4.00
2022-08-26T02:35:29.184Z,5.10
2022-08-26T02:40:39.313Z,5.30
2022-08-26T02:45:43.047Z,4.40
2022-08-26T02:50:46.356Z,4.20
2022-08-26T02:55:49.589Z,4.80
2022-08-26T03:00:53.786Z,5.30
2022-08-26T03:05:57.718Z,4.90
2022-08-26T03:11:01.665Z,4.20
2022-08-26T03:16:05.043Z,4.40
2022-08-26T03:21:14.570Z,4.10
2022-08-26T03:26:17.478Z,4.10
2022-08-26T03:31:20.200Z,4.00
2022-08-26T03:36:27.559Z,3.80
2022-08-26T03:41:32.722Z,4.40
2022-08-26T03:46:35.632Z,5.20
2022-08-26T03:51:39.215Z,4.90
2022-08-26T03:56:41.935Z,6.20
2022-08-26T04:01:44.690Z,5.40
2022-08-26T04:06:47.619Z,5.30
2022-08-26T04:11:50.896Z,5.00
2022-08-26T04:16:56.706Z,5.20
2022-08-26T04:22:00.267Z,5.30
2022-08-26T04:27:03.869Z,5.50
2022-08-26T04:32:08.820Z,5.60
2022-08-26T04:37:12.113Z,5.60
2022-08-26T04:42:19.886Z,6.60
2022-08-26T04:47:32.212Z,6.90
2022-08-26T04:52:36.894Z,7.10
2022-08-26T04:57:40.465Z,7.10
2022-08-26T05:02:43.299Z,7.30
2022-08-26T05:07:46.012Z,8.50
2022-08-26T05:12:49.090Z,8.10
2022-08-26T05:17:52.053Z,8.00
2022-08-26T05:22:54.726Z,8.40
2022-08-26T05:27:58.126Z,7.80
2022-08-26T05:33:02.015Z,7.70
2022-08-26T05:38:12.390Z,7.90
2022-08-26T05:43:16.849Z,8.80
2022-08-26T05:48:24.356Z,8.90
2022-08-26T05:53:27.372Z,7.70
2022-08-26T05:58:30.063Z,7.00
2022-08-26T06:03:37.433Z,8.40
2022-08-26T06:08:41.005Z,9.30
2022-08-26T06:13:45.042Z,8.20
2022-08-26T06:18:50.993Z,8.50
2022-08-26T06:29:24.041Z,9.80
2022-08-26T06:34:31.092Z,9.20
2022-08-26T06:39:34.599Z,10.50
2022-08-26T06:44:38.046Z,10.30
2022-08-26T06:49:44.223Z,9.30
2022-08-26T06:54:47.285Z,9.40
2022-08-26T06:59:51.237Z,9.10
2022-08-26T07:04:54.436Z,7.90
2022-08-26T07:10:00.475Z,8.80
2022-08-26T07:15:04.922Z,7.80
2022-08-26T07:20:09.107Z,8.50
2022-08-26T07:25:12.329Z,8.30
2022-08-26T07:30:15.224Z,7.60
2022-08-26T07:35:18.459Z,8.70
2022-08-26T07:40:22.408Z,7.70
2022-08-26T07:45:25.394Z,7.80
2022-08-26T07:50:49.294Z,7.60
2022-08-26T07:55:51.556Z,7.70
2022-08-26T08:00:55.195Z,8.50
2022-08-26T08:05:57.973Z,7.90
2022-08-26T08:11:01.460Z,7.40
2022-08-26T08:16:05.738Z,7.30
2022-08-26T08:21:21.151Z,7.40
2022-08-26T08:26:26.642Z,7.40
2022-08-26T08:31:55.766Z,6.70
2022-08-26T08:36:57.198Z,6.60
2022-08-26T08:42:06.567Z,6.90
2022-08-26T08:47:35.626Z,6.80
2022-08-26T08:52:41.474Z,6.90
2022-08-26T08:58:02.271Z,6.20
2022-08-26T09:03:37.746Z,6.70
2022-08-26T09:08:41.718Z,6.30
2022-08-26T09:13:54.166Z,6.80
2022-08-26T09:19:35.022Z,5.90
2022-08-26T09:24:41.884Z,6.00
2022-08-26T09:29:51.001Z,5.90
2022-08-26T09:35:00.197Z,6.00
2022-08-26T09:40:34.554Z,5.30
2022-08-26T09:45:41.450Z,5.90
2022-08-26T09:50:54.812Z,5.80
2022-08-26T09:56:22.156Z,5.40
2022-08-26T10:01:34.969Z,5.40
2022-08-26T10:06:43.738Z,4.90
2022-08-26T10:11:51.979Z,5.10
2022-08-26T10:17:02.508Z,5.30
2022-08-26T10:22:16.805Z,4.70
2022-08-26T10:27:53.403Z,4.90
2022-08-26T10:33:03.889Z,5.00
2022-08-26T10:38:15.196Z,4.80
2022-08-26T10:43:26.400Z,5.00
2022-08-26T10:49:00.057Z,4.60
2022-08-26T10:54:29.103Z,5.50
2022-08-26T10:59:56.197Z,5.40
2022-08-26T11:05:16.971Z,4.80
2022-08-26T11:10:19.837Z,4.50
2022-08-26T11:15:26.508Z,5.00
2022-08-26T11:20:42.329Z,5.00
2022-08-26T11:26:08.725Z,4.90
2022-08-26T11:31:34.552Z,4.40
2022-08-26T11:36:40.750Z,4.90
2022-08-26T11:41:46.750Z,4.90
2022-08-26T11:47:00.997Z,4.60
2022-08-26T11:52:18.119Z,4.50
2022-08-26T11:57:24.160Z,4.40
2022-08-26T12:02:27.999Z,4.30
2022-08-26T12:07:30.838Z,4.10
2022-08-26T12:12:37.872Z,4.20
2022-08-26T12:17:41.968Z,4.10
2022-08-26T12:22:48.148Z,4.00
2022-08-26T12:27:54.081Z,4.30
2022-08-26T12:33:14.174Z,4.20
2022-08-26T12:38:28.123Z,3.70
2022-08-26T12:43:40.633Z,3.90
2022-08-26T12:48:48.968Z,3.70
2022-08-26T12:53:52.563Z,4.50
2022-08-26T12:59:10.242Z,4.20
2022-08-26T13:04:35.361Z,4.00
2022-08-26T13:09:38.674Z,4.30
2022-08-26T13:14:41.578Z,4.20
2022-08-26T13:19:44.429Z,4.00
2022-08-26T13:24:47.487Z,4.10
2022-08-26T13:29:51.417Z,3.50
2022-08-26T13:34:55.752Z,4.30
2022-08-26T13:39:59.305Z,4.00
2022-08-26T13:45:02.893Z,3.90
2022-08-26T13:50:06.454Z,3.80
2022-08-26T13:55:12.095Z,3.70
2022-08-26T14:00:17.477Z,4.00
2022-08-26T14:05:20.343Z,4.10
2022-08-26T14:10:24.285Z,4.50
2022-08-26T14:15:28.023Z,4.20
2022-08-26T14:20:33.666Z,3.90
2022-08-26T14:30:42.441Z,4.00
2022-08-26T14:35:49.006Z,3.50
2022-08-26T14:40:52.958Z,3.70
2022-08-26T14:45:56.067Z,3.70
2022-08-26T14:50:59.073Z,3.70
2022-08-26T14:56:02.491Z,3.60
2022-08-26T15:01:07.952Z,3.30
2022-08-26T15:06:11.675Z,3.50
2022-08-26T15:11:14.783Z,3.30
2022-08-26T15:16:17.724Z,3.80
2022-08-26T15:21:22.244Z,3.80
2022-08-26T15:26:25.235Z,3.30
2022-08-26T15:31:31.465Z,3.20
2022-08-26T15:36:37.290Z,3.50
2022-08-26T15:41:41.217Z,3.60
2022-08-26T15:46:44.710Z,3.70
2022-08-26T15:51:50.712Z,3.70
2022-08-26T15:56:53.942Z,3.50
2022-08-26T16:01:58.231Z,3.40
2022-08-26T16:07:01.470Z,3.60
2022-08-26T16:12:04.601Z,3.60
2022-08-26T16:22:10.391Z,4.10
2022-08-26T16:27:13.242Z,4.10
2022-08-26T16:32:16.399Z,4.20
2022-08-26T16:37:19.303Z,3.80
2022-08-26T16:42:22.309Z,3.70
2022-08-26T16:47:25.728Z,3.60
2022-08-26T16:52:30.184Z,3.60
2022-08-26T16:57:39.647Z,4.00
2022-08-26T17:02:42.555Z,3.80
2022-08-26T17:07:45.532Z,4.20
2022-08-26T17:12:48.943Z,4.00
2022-08-26T17:17:52.262Z,5.10
2022-08-26T17:22:55.623Z,4.50
2022-08-26T17:27:59.368Z,5.30
2022-08-26T17:33:02.379Z,6.00
2022-08-26T17:38:14.095Z,5.50
2022-08-26T17:43:17.820Z,6.00
2022-08-26T17:48:20.496Z,5.70
2022-08-26T17:53:24.994Z,6.10
2022-08-26T17:58:27.693Z,5.90
2022-08-26T18:03:32.687Z,7.30
2022-08-26T18:08:35.690Z,6.90
2022-08-26T18:13:39.389Z,5.80
2022-08-26T18:18:53.531Z,7.50
2022-08-26T18:23:57.473Z,6.30
2022-08-26T18:29:00.414Z,6.00
2022-08-26T18:34:03.468Z,6.60
2022-08-26T18:39:08.430Z,6.70
2022-08-26T18:44:13.823Z,6.70
2022-08-26T18:49:19.033Z,13.80
2022-08-26T18:54:22.188Z,9.90
2022-08-26T18:59:29.712Z,13.90
2022-08-26T19:04:33.313Z,10.10
2022-08-26T19:09:36.512Z,10.00
2022-08-26T19:14:39.269Z,8.60
2022-08-26T19:19:42.206Z,9.10
2022-08-26T19:24:44.917Z,11.60
2022-08-26T19:29:47.837Z,9.30
2022-08-26T19:34:52.233Z,7.40
2022-08-26T19:39:55.069Z,7.10
2022-08-26T19:45:24.726Z,6.30
2022-08-26T19:50:30.706Z,6.40
2022-08-26T19:55:33.868Z,7.80
2022-08-26T20:00:39.779Z,8.60
2022-08-26T20:05:42.629Z,12.40
2022-08-26T20:10:46.810Z,8.10
2022-08-26T20:15:49.534Z,8.30
2022-08-26T20:21:30.771Z,8.10
2022-08-26T20:26:35.518Z,8.00
2022-08-26T20:31:39.414Z,7.90
2022-08-26T20:36:43.189Z,9.20
2022-08-26T20:41:46.073Z,7.80
2022-08-26T20:46:49.181Z,7.70
2022-08-26T20:51:52.739Z,8.40
2022-08-26T20:56:57.056Z,8.00
2022-08-26T21:02:00.657Z,8.80
2022-08-26T21:07:03.564Z,8.20
2022-08-26T21:12:08.105Z,7.50
2022-08-26T21:17:11.008Z,6.80
2022-08-26T21:22:14.348Z,8.00
2022-08-26T21:27:17.686Z,7.60
2022-08-26T21:32:29.244Z,8.20
2022-08-26T21:37:32.353Z,8.10
2022-08-26T21:42:36.176Z,10.30
2022-08-26T21:47:39.724Z,10.40
2022-08-26T21:52:42.597Z,10.60
2022-08-26T21:57:45.808Z,9.30
2022-08-26T22:02:50.453Z,8.80
2022-08-26T22:07:53.776Z,8.10
2022-08-26T22:12:56.773Z,9.40
2022-08-26T22:17:59.782Z,10.10
2022-08-26T22:23:02.785Z,9.10
2022-08-26T22:28:06.502Z,9.40
2022-08-26T22:33:09.923Z,8.50
2022-08-26T22:38:13.722Z,8.10
2022-08-26T22:43:18.559Z,7.80
2022-08-26T22:48:24.174Z,8.20
2022-08-26T22:53:27.388Z,8.60
2022-08-26T22:58:30.981Z,8.20
2022-08-26T23:03:35.322Z,8.10
2022-08-26T23:08:39.676Z,8.20
2022-08-26T23:13:42.987Z,8.00
2022-08-26T23:18:46.093Z,9.00
2022-08-26T23:23:49.071Z,8.20
2022-08-26T23:28:53.436Z,7.40
2022-08-26T23:34:15.184Z,7.40
2022-08-26T23:39:18.187Z,8.20
2022-08-26T23:44:21.436Z,7.50
2022-08-26T23:49:25.625Z,7.70
2022-08-26T23:54:28.540Z,7.20
2022-08-26T23:59:32.005Z,8.10
